Denison, IA

7:30 PM CDT on August 22, 2014 (GMT -0500)
Harlan Municipal | Change Station
CLOSE
Current Station
Airport
Location: Harlan,
Elevation: 1230 ft
Nearby Weather Stations
Active Advisory: Special Statement

Elev 1230 ft 41.58 °N, 95.34 °W | Updated 15 minutes ago

Light Rain
Light Rain
77 °F
Feels Like 77 °F
N
0
Wind Variable Wind from North

Today
High -- | Low -- °F
--% Chance of Precip.
Yesterday
High -- | Low -- °F
Precip. -- in
6:36 AM 8:11 PM
Waning Crescent, 6% visible
Pressure 29.95 in
Visibility 9.0 miles
Clouds Clear
Dew Point 77 °F
Humidity 100%
Rainfall 0.22 in
Snow Depth Not available.
UV 0 out of 12
Pollen 9.10 out of 12
Air Quality Not available.
Flu Activity Not available.
METAR KHNR 230015Z AUTO 00000KT 9SM -RA CLR 25/25 A2995 RMK AO2

More Conditions Fewer Conditions

Pressure 29.95 in
Visibility 9.0 miles
Clouds Clear
Dew Point 77 °F
Humidity 100%
Rainfall 0.22 in
Snow Depth Not available.
UV 0 out of 12
Pollen 9.10 out of 12
Air Quality Not available.
Flu Activity Not available.
METAR KHNR 230015Z AUTO 00000KT 9SM -RA CLR 25/25 A2995 RMK AO2

More Conditions Fewer Conditions

10-Day Weather Forecast

Almanac

Astronomy

Aug. 22, 2014 Rise Set
Actual Time 6:36 AM CDT 8:11 PM CDT
Civil Twilight 6:07 AM CDT 8:40 PM CDT
Nautical Twilight 5:31 AM CDT 9:16 PM CDT
Astronomical Twilight 4:53 AM CDT 9:53 PM CDT
Moon 3:58 AM CDT (8/22) 6:21 PM CDT (8/22)
Length of Visible Light 14h 33m
Length of Day
13h 34m
Tomorrow will be 2m 37s shorter.
Waning Crescent, 6% of the Moon is Illuminated
Today
Waning Crescent
Aug 25
New
Sep 2
First Quarter
Sep 8
Full
Sep 15
Last Quarter

Today's Extremes

State Highs State Lows

Community

WunderPhotos

Upload Photos

1,746,322 photos uploaded!

WunderBlogs® & News

Nearby

Snow Depth

Station Depth Elevation
No new snow has been reported.

Earthquake Activity

City Distance Mag. Time & Date
No recent earthquake activity has been reported nearby.
Minimum magnitude displayed is 2.5.

Coastal Water Temperatures

Place Temperature
No Stations Reporting

Nearby Weather Stations